sensor_id;sensor_type;location;lat;lon;timestamp;temperature;humidity
3334;DHT22;1679;50.392;8.008;2023-03-23T00:01:30;12.70;99.90
3334;DHT22;1679;50.392;8.008;2023-03-23T00:03:58;12.60;99.90
3334;DHT22;1679;50.392;8.008;2023-03-23T00:06:26;12.50;99.90
3334;DHT22;1679;50.392;8.008;2023-03-23T00:08:53;12.50;99.90
3334;DHT22;1679;50.392;8.008;2023-03-23T00:11:26;12.30;99.90
3334;DHT22;1679;50.392;8.008;2023-03-23T00:13:54;12.20;99.90
3334;DHT22;1679;50.392;8.008;2023-03-23T00:16:24;12.10;99.90
3334;DHT22;1679;50.392;8.008;2023-03-23T00:19:05;12.00;99.90
3334;DHT22;1679;50.392;8.008;2023-03-23T00:21:36;12.00;99.90
3334;DHT22;1679;50.392;8.008;2023-03-23T00:26:33;11.90;99.90
3334;DHT22;1679;50.392;8.008;2023-03-23T00:29:04;11.80;99.90
3334;DHT22;1679;50.392;8.008;2023-03-23T00:31:30;11.80;99.90
3334;DHT22;1679;50.392;8.008;2023-03-23T00:34:01;11.70;99.90
3334;DHT22;1679;50.392;8.008;2023-03-23T00:36:27;11.70;99.90
3334;DHT22;1679;50.392;8.008;2023-03-23T00:38:53;11.60;99.90
3334;DHT22;1679;50.392;8.008;2023-03-23T00:41:19;11.60;99.90
3334;DHT22;1679;50.392;8.008;2023-03-23T00:43:46;11.60;99.90
3334;DHT22;1679;50.392;8.008;2023-03-23T00:46:14;11.60;99.90
3334;DHT22;1679;50.392;8.008;2023-03-23T00:48:40;11.70;99.90
3334;DHT22;1679;50.392;8.008;2023-03-23T00:51:10;11.70;99.90
3334;DHT22;1679;50.392;8.008;2023-03-23T00:53:36;11.60;99.90
3334;DHT22;1679;50.392;8.008;2023-03-23T00:56:01;11.60;99.90
3334;DHT22;1679;50.392;8.008;2023-03-23T00:58:28;11.60;99.90
3334;DHT22;1679;50.392;8.008;2023-03-23T01:00:55;11.50;99.90
3334;DHT22;1679;50.392;8.008;2023-03-23T01:03:22;11.50;99.90
3334;DHT22;1679;50.392;8.008;2023-03-23T01:05:51;11.40;99.90
3334;DHT22;1679;50.392;8.008;2023-03-23T01:08:18;11.40;99.90
3334;DHT22;1679;50.392;8.008;2023-03-23T01:10:45;11.40;99.90
3334;DHT22;1679;50.392;8.008;2023-03-23T01:13:12;11.40;99.90
3334;DHT22;1679;50.392;8.008;2023-03-23T01:15:38;11.40;99.90
3334;DHT22;1679;50.392;8.008;2023-03-23T01:18:05;11.40;99.90
3334;DHT22;1679;50.392;8.008;2023-03-23T01:20:32;11.40;99.90
3334;DHT22;1679;50.392;8.008;2023-03-23T01:22:58;11.40;99.90
3334;DHT22;1679;50.392;8.008;2023-03-23T01:25:27;11.30;99.90
3334;DHT22;1679;50.392;8.008;2023-03-23T01:27:53;11.30;99.90
3334;DHT22;1679;50.392;8.008;2023-03-23T01:30:19;11.30;99.90
3334;DHT22;1679;50.392;8.008;2023-03-23T01:32:45;11.30;99.90
3334;DHT22;1679;50.392;8.008;2023-03-23T01:35:12;11.30;99.90
3334;DHT22;1679;50.392;8.008;2023-03-23T01:37:38;11.20;99.90
3334;DHT22;1679;50.392;8.008;2023-03-23T01:40:04;11.30;99.90
3334;DHT22;1679;50.392;8.008;2023-03-23T01:42:35;11.20;99.90
3334;DHT22;1679;50.392;8.008;2023-03-23T01:45:23;11.30;99.90
3334;DHT22;1679;50.392;8.008;2023-03-23T01:47:55;11.30;99.90
3334;DHT22;1679;50.392;8.008;2023-03-23T01:50:23;11.30;99.90
3334;DHT22;1679;50.392;8.008;2023-03-23T01:52:53;11.20;99.90
3334;DHT22;1679;50.392;8.008;2023-03-23T01:55:21;11.10;99.90
3334;DHT22;1679;50.392;8.008;2023-03-23T01:57:47;11.10;99.90
3334;DHT22;1679;50.392;8.008;2023-03-23T02:00:14;11.00;99.90
3334;DHT22;1679;50.392;8.008;2023-03-23T02:02:43;11.00;99.90
3334;DHT22;1679;50.392;8.008;2023-03-23T02:05:13;10.90;99.90
3334;DHT22;1679;50.392;8.008;2023-03-23T02:07:39;11.00;99.90
3334;DHT22;1679;50.392;8.008;2023-03-23T02:10:05;11.00;99.90
3334;DHT22;1679;50.392;8.008;2023-03-23T02:12:31;10.90;99.90
3334;DHT22;1679;50.392;8.008;2023-03-23T02:14:57;10.90;99.90
3334;DHT22;1679;50.392;8.008;2023-03-23T02:17:47;11.00;99.90
3334;DHT22;1679;50.392;8.008;2023-03-23T02:20:56;11.00;99.90
3334;DHT22;1679;50.392;8.008;2023-03-23T02:26:19;11.00;99.90
3334;DHT22;1679;50.392;8.008;2023-03-23T02:34:23;11.10;99.90
3334;DHT22;1679;50.392;8.008;2023-03-23T02:37:03;11.10;99.90
3334;DHT22;1679;50.392;8.008;2023-03-23T02:42:07;11.00;99.90
3334;DHT22;1679;50.392;8.008;2023-03-23T02:44:37;11.00;99.90
3334;DHT22;1679;50.392;8.008;2023-03-23T02:47:08;11.00;99.90
3334;DHT22;1679;50.392;8.008;2023-03-23T02:49:39;11.00;99.90
3334;DHT22;1679;50.392;8.008;2023-03-23T02:52:09;11.00;99.90
3334;DHT22;1679;50.392;8.008;2023-03-23T02:54:38;10.90;99.90
3334;DHT22;1679;50.392;8.008;2023-03-23T02:57:05;10.90;99.90
3334;DHT22;1679;50.392;8.008;2023-03-23T02:59:30;10.90;99.90
3334;DHT22;1679;50.392;8.008;2023-03-23T03:02:11;10.80;99.90
3334;DHT22;1679;50.392;8.008;2023-03-23T03:04:39;10.80;99.90
3334;DHT22;1679;50.392;8.008;2023-03-23T03:07:30;10.80;99.90
3334;DHT22;1679;50.392;8.008;2023-03-23T03:10:13;10.80;99.90
3334;DHT22;1679;50.392;8.008;2023-03-23T03:12:48;10.80;99.90
3334;DHT22;1679;50.392;8.008;2023-03-23T03:15:33;10.70;99.90
3334;DHT22;1679;50.392;8.008;2023-03-23T03:18:08;10.70;99.90
3334;DHT22;1679;50.392;8.008;2023-03-23T03:20:40;10.80;99.90
3334;DHT22;1679;50.392;8.008;2023-03-23T03:23:08;10.70;99.90
3334;DHT22;1679;50.392;8.008;2023-03-23T03:25:35;10.70;99.90
3334;DHT22;1679;50.392;8.008;2023-03-23T03:28:03;10.60;99.90
3334;DHT22;1679;50.392;8.008;2023-03-23T03:30:32;10.60;99.90
3334;DHT22;1679;50.392;8.008;2023-03-23T03:33:01;10.60;99.90
3334;DHT22;1679;50.392;8.008;2023-03-23T03:35:29;10.70;99.90
3334;DHT22;1679;50.392;8.008;2023-03-23T03:37:56;10.80;99.90
3334;DHT22;1679;50.392;8.008;2023-03-23T03:40:23;10.90;99.90
3334;DHT22;1679;50.392;8.008;2023-03-23T03:42:49;10.90;99.90
3334;DHT22;1679;50.392;8.008;2023-03-23T03:45:18;11.00;99.90
3334;DHT22;1679;50.392;8.008;2023-03-23T03:47:43;11.20;99.90
3334;DHT22;1679;50.392;8.008;2023-03-23T03:50:10;11.20;99.90
3334;DHT22;1679;50.392;8.008;2023-03-23T03:52:36;11.20;99.90
3334;DHT22;1679;50.392;8.008;2023-03-23T03:55:04;11.30;99.90
3334;DHT22;1679;50.392;8.008;2023-03-23T03:57:30;11.30;99.90
3334;DHT22;1679;50.392;8.008;2023-03-23T03:59:56;11.30;99.90
3334;DHT22;1679;50.392;8.008;2023-03-23T04:02:22;11.40;99.90
3334;DHT22;1679;50.392;8.008;2023-03-23T04:04:47;11.40;99.90
3334;DHT22;1679;50.392;8.008;2023-03-23T04:07:13;11.40;99.90
3334;DHT22;1679;50.392;8.008;2023-03-23T04:09:44;11.50;99.90
3334;DHT22;1679;50.392;8.008;2023-03-23T04:12:12;11.50;99.90
3334;DHT22;1679;50.392;8.008;2023-03-23T04:14:38;11.40;99.90
3334;DHT22;1679;50.392;8.008;2023-03-23T04:17:05;11.50;99.90
3334;DHT22;1679;50.392;8.008;2023-03-23T04:19:32;11.40;99.90
3334;DHT22;1679;50.392;8.008;2023-03-23T04:21:58;11.40;99.90
3334;DHT22;1679;50.392;8.008;2023-03-23T04:24:24;11.30;99.90
3334;DHT22;1679;50.392;8.008;2023-03-23T04:26:51;11.30;99.90
3334;DHT22;1679;50.392;8.008;2023-03-23T04:29:20;11.30;99.90
3334;DHT22;1679;50.392;8.008;2023-03-23T04:31:45;11.20;99.90
3334;DHT22;1679;50.392;8.008;2023-03-23T04:34:11;11.20;99.90
3334;DHT22;1679;50.392;8.008;2023-03-23T04:36:39;11.30;99.90
3334;DHT22;1679;50.392;8.008;2023-03-23T04:39:07;11.30;99.90
3334;DHT22;1679;50.392;8.008;2023-03-23T04:41:36;11.30;99.90
3334;DHT22;1679;50.392;8.008;2023-03-23T04:44:02;11.30;99.90
3334;DHT22;1679;50.392;8.008;2023-03-23T04:46:28;11.30;99.90
3334;DHT22;1679;50.392;8.008;2023-03-23T04:48:57;11.30;99.90
3334;DHT22;1679;50.392;8.008;2023-03-23T04:51:29;11.30;99.90
3334;DHT22;1679;50.392;8.008;2023-03-23T04:53:56;11.30;99.90
3334;DHT22;1679;50.392;8.008;2023-03-23T04:56:22;11.30;99.90
3334;DHT22;1679;50.392;8.008;2023-03-23T04:58:47;11.30;99.90
3334;DHT22;1679;50.392;8.008;2023-03-23T05:01:13;11.30;99.90
3334;DHT22;1679;50.392;8.008;2023-03-23T05:03:40;11.30;99.90
3334;DHT22;1679;50.392;8.008;2023-03-23T05:06:06;11.30;99.90
3334;DHT22;1679;50.392;8.008;2023-03-23T05:08:32;11.40;99.90
3334;DHT22;1679;50.392;8.008;2023-03-23T05:11:00;11.30;99.90
3334;DHT22;1679;50.392;8.008;2023-03-23T05:13:27;11.30;99.90
3334;DHT22;1679;50.392;8.008;2023-03-23T05:15:53;11.40;99.90
3334;DHT22;1679;50.392;8.008;2023-03-23T05:18:20;11.30;99.90
3334;DHT22;1679;50.392;8.008;2023-03-23T05:20:46;11.30;99.90
3334;DHT22;1679;50.392;8.008;2023-03-23T05:23:12;11.30;99.90
3334;DHT22;1679;50.392;8.008;2023-03-23T05:25:38;11.30;99.90
3334;DHT22;1679;50.392;8.008;2023-03-23T05:28:09;11.40;99.90
3334;DHT22;1679;50.392;8.008;2023-03-23T05:30:37;11.40;99.90
3334;DHT22;1679;50.392;8.008;2023-03-23T05:33:03;11.40;99.90
3334;DHT22;1679;50.392;8.008;2023-03-23T05:35:29;11.30;99.90
3334;DHT22;1679;50.392;8.008;2023-03-23T05:37:55;11.30;99.90
3334;DHT22;1679;50.392;8.008;2023-03-23T05:40:22;11.30;99.90
3334;DHT22;1679;50.392;8.008;2023-03-23T05:42:50;11.30;99.90
3334;DHT22;1679;50.392;8.008;2023-03-23T05:45:17;11.30;99.90
3334;DHT22;1679;50.392;8.008;2023-03-23T05:47:44;11.20;99.90
3334;DHT22;1679;50.392;8.008;2023-03-23T05:50:11;11.20;99.90
3334;DHT22;1679;50.392;8.008;2023-03-23T05:52:38;11.20;99.90
3334;DHT22;1679;50.392;8.008;2023-03-23T05:55:04;11.20;99.90
3334;DHT22;1679;50.392;8.008;2023-03-23T05:57:30;11.20;99.90
3334;DHT22;1679;50.392;8.008;2023-03-23T05:59:56;11.20;99.90
3334;DHT22;1679;50.392;8.008;2023-03-23T06:02:23;11.20;99.90
3334;DHT22;1679;50.392;8.008;2023-03-23T06:04:50;11.20;99.90
3334;DHT22;1679;50.392;8.008;2023-03-23T06:07:16;11.20;99.90
3334;DHT22;1679;50.392;8.008;2023-03-23T06:09:42;11.30;99.90
3334;DHT22;1679;50.392;8.008;2023-03-23T06:12:09;11.30;99.90
3334;DHT22;1679;50.392;8.008;2023-03-23T06:14:36;11.40;99.90
3334;DHT22;1679;50.392;8.008;2023-03-23T06:17:03;11.40;99.90
3334;DHT22;1679;50.392;8.008;2023-03-23T06:19:28;11.40;99.90
3334;DHT22;1679;50.392;8.008;2023-03-23T06:21:54;11.40;99.90
3334;DHT22;1679;50.392;8.008;2023-03-23T06:24:20;11.50;99.90
3334;DHT22;1679;50.392;8.008;2023-03-23T06:26:46;11.50;99.90
3334;DHT22;1679;50.392;8.008;2023-03-23T06:29:14;11.60;99.90
3334;DHT22;1679;50.392;8.008;2023-03-23T06:31:52;11.60;99.90
3334;DHT22;1679;50.392;8.008;2023-03-23T06:34:19;11.70;99.90
3334;DHT22;1679;50.392;8.008;2023-03-23T06:36:45;11.70;99.90
3334;DHT22;1679;50.392;8.008;2023-03-23T06:39:10;11.70;99.90
3334;DHT22;1679;50.392;8.008;2023-03-23T06:41:36;11.60;99.90
3334;DHT22;1679;50.392;8.008;2023-03-23T06:44:02;11.60;99.90
3334;DHT22;1679;50.392;8.008;2023-03-23T06:46:28;11.60;99.90
3334;DHT22;1679;50.392;8.008;2023-03-23T06:48:54;11.60;99.90
3334;DHT22;1679;50.392;8.008;2023-03-23T06:51:20;11.60;99.90
3334;DHT22;1679;50.392;8.008;2023-03-23T06:53:46;11.70;99.90
3334;DHT22;1679;50.392;8.008;2023-03-23T06:56:12;11.70;99.90
3334;DHT22;1679;50.392;8.008;2023-03-23T06:58:39;11.70;99.90
3334;DHT22;1679;50.392;8.008;2023-03-23T07:01:05;11.70;99.90
3334;DHT22;1679;50.392;8.008;2023-03-23T07:03:31;11.70;99.90
3334;DHT22;1679;50.392;8.008;2023-03-23T07:05:57;11.80;99.90
3334;DHT22;1679;50.392;8.008;2023-03-23T07:08:24;11.80;99.90
3334;DHT22;1679;50.392;8.008;2023-03-23T07:10:54;11.80;99.90
3334;DHT22;1679;50.392;8.008;2023-03-23T07:13:20;11.80;99.90
3334;DHT22;1679;50.392;8.008;2023-03-23T07:15:46;11.80;99.90
3334;DHT22;1679;50.392;8.008;2023-03-23T07:18:12;11.70;99.90
3334;DHT22;1679;50.392;8.008;2023-03-23T07:20:38;11.70;99.90
3334;DHT22;1679;50.392;8.008;2023-03-23T07:23:05;11.70;99.90
3334;DHT22;1679;50.392;8.008;2023-03-23T07:25:31;11.80;99.90
3334;DHT22;1679;50.392;8.008;2023-03-23T07:28:01;11.70;99.90
3334;DHT22;1679;50.392;8.008;2023-03-23T07:30:28;11.80;99.90
3334;DHT22;1679;50.392;8.008;2023-03-23T07:32:56;11.80;99.90
3334;DHT22;1679;50.392;8.008;2023-03-23T07:35:22;11.80;99.90
3334;DHT22;1679;50.392;8.008;2023-03-23T07:37:48;11.90;99.90
3334;DHT22;1679;50.392;8.008;2023-03-23T07:40:33;11.90;99.90
3334;DHT22;1679;50.392;8.008;2023-03-23T07:43:03;11.90;99.90
3334;DHT22;1679;50.392;8.008;2023-03-23T07:45:30;12.00;99.90
3334;DHT22;1679;50.392;8.008;2023-03-23T07:47:56;12.00;99.90
3334;DHT22;1679;50.392;8.008;2023-03-23T07:50:22;12.00;99.90
3334;DHT22;1679;50.392;8.008;2023-03-23T07:52:50;12.10;99.90
3334;DHT22;1679;50.392;8.008;2023-03-23T07:55:16;12.10;99.90
3334;DHT22;1679;50.392;8.008;2023-03-23T07:57:45;12.20;99.90
3334;DHT22;1679;50.392;8.008;2023-03-23T08:00:12;12.10;99.90
3334;DHT22;1679;50.392;8.008;2023-03-23T08:02:40;12.20;99.90
3334;DHT22;1679;50.392;8.008;2023-03-23T08:05:07;12.20;99.90
3334;DHT22;1679;50.392;8.008;2023-03-23T08:07:34;12.20;99.90
3334;DHT22;1679;50.392;8.008;2023-03-23T08:10:00;12.30;99.90
3334;DHT22;1679;50.392;8.008;2023-03-23T08:12:27;12.30;99.90
3334;DHT22;1679;50.392;8.008;2023-03-23T08:14:54;12.40;99.90
3334;DHT22;1679;50.392;8.008;2023-03-23T08:17:20;12.40;99.90
3334;DHT22;1679;50.392;8.008;2023-03-23T08:19:47;12.40;99.90
3334;DHT22;1679;50.392;8.008;2023-03-23T08:22:13;12.40;99.90
3334;DHT22;1679;50.392;8.008;2023-03-23T08:24:39;12.40;99.90
3334;DHT22;1679;50.392;8.008;2023-03-23T08:27:06;12.50;99.90
3334;DHT22;1679;50.392;8.008;2023-03-23T08:29:32;12.50;99.90
3334;DHT22;1679;50.392;8.008;2023-03-23T08:31:58;12.60;99.90
3334;DHT22;1679;50.392;8.008;2023-03-23T08:34:25;12.60;99.90
3334;DHT22;1679;50.392;8.008;2023-03-23T08:36:50;12.70;99.90
3334;DHT22;1679;50.392;8.008;2023-03-23T08:39:17;12.70;99.90
3334;DHT22;1679;50.392;8.008;2023-03-23T08:41:43;12.80;99.90
3334;DHT22;1679;50.392;8.008;2023-03-23T08:44:10;12.90;99.90
3334;DHT22;1679;50.392;8.008;2023-03-23T08:46:36;12.90;99.90
3334;DHT22;1679;50.392;8.008;2023-03-23T08:49:01;13.00;99.90
3334;DHT22;1679;50.392;8.008;2023-03-23T08:51:27;13.00;99.90
3334;DHT22;1679;50.392;8.008;2023-03-23T08:53:53;13.00;99.90
3334;DHT22;1679;50.392;8.008;2023-03-23T08:56:19;13.10;99.90
3334;DHT22;1679;50.392;8.008;2023-03-23T08:58:45;13.10;99.90
3334;DHT22;1679;50.392;8.008;2023-03-23T09:01:11;13.10;99.90
3334;DHT22;1679;50.392;8.008;2023-03-23T09:03:37;13.20;99.90
3334;DHT22;1679;50.392;8.008;2023-03-23T09:06:06;13.30;99.90
3334;DHT22;1679;50.392;8.008;2023-03-23T09:08:34;13.40;99.90
3334;DHT22;1679;50.392;8.008;2023-03-23T09:11:03;13.50;99.90
3334;DHT22;1679;50.392;8.008;2023-03-23T09:13:29;13.60;99.90
3334;DHT22;1679;50.392;8.008;2023-03-23T09:15:55;13.60;99.90
3334;DHT22;1679;50.392;8.008;2023-03-23T09:18:20;13.60;99.90
3334;DHT22;1679;50.392;8.008;2023-03-23T09:20:49;13.50;99.90
3334;DHT22;1679;50.392;8.008;2023-03-23T09:23:15;13.50;99.90
3334;DHT22;1679;50.392;8.008;2023-03-23T09:25:41;13.50;99.90
3334;DHT22;1679;50.392;8.008;2023-03-23T09:28:07;13.50;99.90
3334;DHT22;1679;50.392;8.008;2023-03-23T09:30:33;13.50;99.90
3334;DHT22;1679;50.392;8.008;2023-03-23T09:33:01;13.50;99.90
3334;DHT22;1679;50.392;8.008;2023-03-23T09:35:27;13.50;99.90
3334;DHT22;1679;50.392;8.008;2023-03-23T09:37:53;13.40;99.90
3334;DHT22;1679;50.392;8.008;2023-03-23T09:40:23;13.40;99.90
3334;DHT22;1679;50.392;8.008;2023-03-23T09:43:13;13.30;99.90
3334;DHT22;1679;50.392;8.008;2023-03-23T09:45:52;13.30;99.90
3334;DHT22;1679;50.392;8.008;2023-03-23T09:48:36;13.20;99.90
3334;DHT22;1679;50.392;8.008;2023-03-23T09:51:22;13.20;99.90
3334;DHT22;1679;50.392;8.008;2023-03-23T09:53:55;13.20;99.90
3334;DHT22;1679;50.392;8.008;2023-03-23T09:56:23;13.10;99.90
3334;DHT22;1679;50.392;8.008;2023-03-23T09:59:04;13.20;99.90
3334;DHT22;1679;50.392;8.008;2023-03-23T10:01:44;13.10;99.90
3334;DHT22;1679;50.392;8.008;2023-03-23T10:06:41;13.00;99.90
3334;DHT22;1679;50.392;8.008;2023-03-23T10:09:15;13.00;99.90
3334;DHT22;1679;50.392;8.008;2023-03-23T10:12:56;13.10;99.90
3334;DHT22;1679;50.392;8.008;2023-03-23T10:15:13;13.20;99.90
3334;DHT22;1679;50.392;8.008;2023-03-23T10:18:02;13.40;99.90
3334;DHT22;1679;50.392;8.008;2023-03-23T10:29:16;13.50;99.90
3334;DHT22;1679;50.392;8.008;2023-03-23T10:32:02;13.60;99.90
3334;DHT22;1679;50.392;8.008;2023-03-23T10:35:03;13.80;99.90
3334;DHT22;1679;50.392;8.008;2023-03-23T10:37:25;14.00;99.90
3334;DHT22;1679;50.392;8.008;2023-03-23T10:39:55;14.10;99.90
3334;DHT22;1679;50.392;8.008;2023-03-23T10:42:33;14.10;99.90
3334;DHT22;1679;50.392;8.008;2023-03-23T10:45:11;14.20;99.90
3334;DHT22;1679;50.392;8.008;2023-03-23T10:47:41;14.20;99.90
3334;DHT22;1679;50.392;8.008;2023-03-23T10:50:13;14.40;99.90
3334;DHT22;1679;50.392;8.008;2023-03-23T10:52:42;14.50;99.90
3334;DHT22;1679;50.392;8.008;2023-03-23T10:55:13;14.70;99.90
3334;DHT22;1679;50.392;8.008;2023-03-23T10:57:43;14.70;99.90
3334;DHT22;1679;50.392;8.008;2023-03-23T11:00:24;14.50;99.90
3334;DHT22;1679;50.392;8.008;2023-03-23T11:03:06;14.30;99.90
3334;DHT22;1679;50.392;8.008;2023-03-23T11:05:41;14.00;99.90
3334;DHT22;1679;50.392;8.008;2023-03-23T11:08:17;13.80;99.90
3334;DHT22;1679;50.392;8.008;2023-03-23T11:10:55;13.60;99.90
3334;DHT22;1679;50.392;8.008;2023-03-23T11:13:27;13.50;99.90
3334;DHT22;1679;50.392;8.008;2023-03-23T11:15:55;13.40;99.90
3334;DHT22;1679;50.392;8.008;2023-03-23T11:18:38;13.50;99.90
3334;DHT22;1679;50.392;8.008;2023-03-23T11:21:06;13.60;99.90
3334;DHT22;1679;50.392;8.008;2023-03-23T11:23:37;13.70;99.90
3334;DHT22;1679;50.392;8.008;2023-03-23T11:26:15;13.70;99.90
3334;DHT22;1679;50.392;8.008;2023-03-23T11:28:55;13.80;99.90
3334;DHT22;1679;50.392;8.008;2023-03-23T11:31:32;13.80;99.90
3334;DHT22;1679;50.392;8.008;2023-03-23T11:34:01;14.10;99.90
3334;DHT22;1679;50.392;8.008;2023-03-23T11:36:40;14.30;99.90
3334;DHT22;1679;50.392;8.008;2023-03-23T11:39:27;14.40;99.90
3334;DHT22;1679;50.392;8.008;2023-03-23T11:41:58;14.30;99.90
3334;DHT22;1679;50.392;8.008;2023-03-23T11:44:32;14.30;99.90
3334;DHT22;1679;50.392;8.008;2023-03-23T11:47:02;14.20;99.90
3334;DHT22;1679;50.392;8.008;2023-03-23T11:49:42;14.20;99.90
3334;DHT22;1679;50.392;8.008;2023-03-23T11:52:34;14.20;99.90
3334;DHT22;1679;50.392;8.008;2023-03-23T11:55:16;14.40;99.90
3334;DHT22;1679;50.392;8.008;2023-03-23T11:57:43;14.80;99.90
3334;DHT22;1679;50.392;8.008;2023-03-23T12:00:15;15.00;99.90
3334;DHT22;1679;50.392;8.008;2023-03-23T12:03:02;15.00;99.90
3334;DHT22;1679;50.392;8.008;2023-03-23T12:05:38;15.20;99.90
3334;DHT22;1679;50.392;8.008;2023-03-23T12:10:55;15.30;99.90
3334;DHT22;1679;50.392;8.008;2023-03-23T12:19:17;15.20;99.90
3334;DHT22;1679;50.392;8.008;2023-03-23T12:24:46;15.30;99.90
3334;DHT22;1679;50.392;8.008;2023-03-23T12:27:41;15.30;99.90
3334;DHT22;1679;50.392;8.008;2023-03-23T12:33:10;15.10;99.90
3334;DHT22;1679;50.392;8.008;2023-03-23T12:38:46;15.00;99.90
3334;DHT22;1679;50.392;8.008;2023-03-23T12:41:17;14.90;99.90
3334;DHT22;1679;50.392;8.008;2023-03-23T12:44:05;14.80;99.90
3334;DHT22;1679;50.392;8.008;2023-03-23T12:47:01;14.90;99.90
3334;DHT22;1679;50.392;8.008;2023-03-23T12:49:50;14.90;99.90
3334;DHT22;1679;50.392;8.008;2023-03-23T12:52:36;15.00;99.90
3334;DHT22;1679;50.392;8.008;2023-03-23T12:55:22;15.10;99.90
3334;DHT22;1679;50.392;8.008;2023-03-23T12:58:03;15.20;99.90
3334;DHT22;1679;50.392;8.008;2023-03-23T13:03:34;15.50;99.90
3334;DHT22;1679;50.392;8.008;2023-03-23T13:11:34;15.90;99.90
3334;DHT22;1679;50.392;8.008;2023-03-23T13:20:16;16.10;99.90
3334;DHT22;1679;50.392;8.008;2023-03-23T13:22:58;16.00;99.90
3334;DHT22;1679;50.392;8.008;2023-03-23T13:28:21;16.10;99.90
3334;DHT22;1679;50.392;8.008;2023-03-23T13:31:33;16.10;99.90
3334;DHT22;1679;50.392;8.008;2023-03-23T13:33:58;16.10;99.90
3334;DHT22;1679;50.392;8.008;2023-03-23T13:36:31;16.00;99.90
3334;DHT22;1679;50.392;8.008;2023-03-23T13:38:59;16.10;99.90
3334;DHT22;1679;50.392;8.008;2023-03-23T13:41:26;16.20;99.90
3334;DHT22;1679;50.392;8.008;2023-03-23T13:43:52;16.20;99.90
3334;DHT22;1679;50.392;8.008;2023-03-23T13:46:30;16.00;99.90
3334;DHT22;1679;50.392;8.008;2023-03-23T13:49:19;16.00;99.90
3334;DHT22;1679;50.392;8.008;2023-03-23T13:51:59;16.10;99.90
3334;DHT22;1679;50.392;8.008;2023-03-23T13:54:31;16.00;99.90
3334;DHT22;1679;50.392;8.008;2023-03-23T13:57:19;16.00;99.90
3334;DHT22;1679;50.392;8.008;2023-03-23T13:59:55;16.10;99.90
3334;DHT22;1679;50.392;8.008;2023-03-23T14:02:37;16.00;99.90
3334;DHT22;1679;50.392;8.008;2023-03-23T14:05:30;15.90;99.90
3334;DHT22;1679;50.392;8.008;2023-03-23T14:07:59;15.80;99.90
3334;DHT22;1679;50.392;8.008;2023-03-23T14:11:01;15.70;99.90
3334;DHT22;1679;50.392;8.008;2023-03-23T14:13:42;15.60;99.90
3334;DHT22;1679;50.392;8.008;2023-03-23T14:16:44;15.70;99.90
3334;DHT22;1679;50.392;8.008;2023-03-23T14:19:27;15.60;99.90
3334;DHT22;1679;50.392;8.008;2023-03-23T14:21:58;15.70;99.90
3334;DHT22;1679;50.392;8.008;2023-03-23T14:24:29;15.70;99.90
3334;DHT22;1679;50.392;8.008;2023-03-23T14:27:22;15.80;99.90
3334;DHT22;1679;50.392;8.008;2023-03-23T14:29:58;15.80;99.90
3334;DHT22;1679;50.392;8.008;2023-03-23T14:32:27;15.90;99.90
3334;DHT22;1679;50.392;8.008;2023-03-23T14:34:55;15.80;99.90
3334;DHT22;1679;50.392;8.008;2023-03-23T14:37:21;15.70;99.90
3334;DHT22;1679;50.392;8.008;2023-03-23T14:39:52;15.60;99.90
3334;DHT22;1679;50.392;8.008;2023-03-23T14:42:29;15.60;99.90
3334;DHT22;1679;50.392;8.008;2023-03-23T14:44:57;15.50;99.90
3334;DHT22;1679;50.392;8.008;2023-03-23T14:47:37;15.50;99.90
3334;DHT22;1679;50.392;8.008;2023-03-23T14:50:06;15.50;99.90
3334;DHT22;1679;50.392;8.008;2023-03-23T14:52:35;15.50;99.90
3334;DHT22;1679;50.392;8.008;2023-03-23T14:55:19;15.50;99.90
3334;DHT22;1679;50.392;8.008;2023-03-23T14:57:46;15.50;99.90
3334;DHT22;1679;50.392;8.008;2023-03-23T15:00:24;15.40;99.90
3334;DHT22;1679;50.392;8.008;2023-03-23T15:02:56;15.30;99.90
3334;DHT22;1679;50.392;8.008;2023-03-23T15:05:30;15.30;99.90
3334;DHT22;1679;50.392;8.008;2023-03-23T15:08:05;15.20;99.90
3334;DHT22;1679;50.392;8.008;2023-03-23T15:10:32;15.10;99.90
3334;DHT22;1679;50.392;8.008;2023-03-23T15:12:58;15.10;99.90
3334;DHT22;1679;50.392;8.008;2023-03-23T15:15:31;15.10;99.90
3334;DHT22;1679;50.392;8.008;2023-03-23T15:17:58;15.00;99.90
3334;DHT22;1679;50.392;8.008;2023-03-23T15:20:29;15.00;99.90
3334;DHT22;1679;50.392;8.008;2023-03-23T15:22:57;15.00;99.90
3334;DHT22;1679;50.392;8.008;2023-03-23T15:25:33;15.00;99.90
3334;DHT22;1679;50.392;8.008;2023-03-23T15:28:20;14.90;99.90
3334;DHT22;1679;50.392;8.008;2023-03-23T15:30:52;14.90;99.90
3334;DHT22;1679;50.392;8.008;2023-03-23T15:33:18;14.80;99.90
3334;DHT22;1679;50.392;8.008;2023-03-23T15:35:50;14.80;99.90
3334;DHT22;1679;50.392;8.008;2023-03-23T15:38:31;14.80;99.90
3334;DHT22;1679;50.392;8.008;2023-03-23T15:41:01;14.70;99.90
3334;DHT22;1679;50.392;8.008;2023-03-23T15:43:32;14.80;99.90
3334;DHT22;1679;50.392;8.008;2023-03-23T15:46:02;14.70;99.90
3334;DHT22;1679;50.392;8.008;2023-03-23T15:48:51;14.70;99.90
3334;DHT22;1679;50.392;8.008;2023-03-23T15:51:18;14.70;99.90
3334;DHT22;1679;50.392;8.008;2023-03-23T15:53:45;14.70;99.90
3334;DHT22;1679;50.392;8.008;2023-03-23T15:56:12;14.70;99.90
3334;DHT22;1679;50.392;8.008;2023-03-23T15:58:40;14.70;99.90
3334;DHT22;1679;50.392;8.008;2023-03-23T16:01:11;14.60;99.90
3334;DHT22;1679;50.392;8.008;2023-03-23T16:06:13;14.60;99.90
3334;DHT22;1679;50.392;8.008;2023-03-23T16:08:41;14.50;99.90
3334;DHT22;1679;50.392;8.008;2023-03-23T16:11:09;14.50;99.90
3334;DHT22;1679;50.392;8.008;2023-03-23T16:13:35;14.50;99.90
3334;DHT22;1679;50.392;8.008;2023-03-23T16:16:01;14.50;99.90
3334;DHT22;1679;50.392;8.008;2023-03-23T16:18:29;14.50;99.90
3334;DHT22;1679;50.392;8.008;2023-03-23T16:20:56;14.50;99.90
3334;DHT22;1679;50.392;8.008;2023-03-23T16:23:22;14.40;99.90
3334;DHT22;1679;50.392;8.008;2023-03-23T16:25:48;14.50;99.90
3334;DHT22;1679;50.392;8.008;2023-03-23T16:28:15;14.40;99.90
3334;DHT22;1679;50.392;8.008;2023-03-23T16:30:42;14.40;99.90
3334;DHT22;1679;50.392;8.008;2023-03-23T16:33:08;14.40;99.90
3334;DHT22;1679;50.392;8.008;2023-03-23T16:35:35;14.30;99.90
3334;DHT22;1679;50.392;8.008;2023-03-23T16:38:00;14.30;99.90
3334;DHT22;1679;50.392;8.008;2023-03-23T16:40:26;14.20;99.90
3334;DHT22;1679;50.392;8.008;2023-03-23T16:42:52;14.20;99.90
3334;DHT22;1679;50.392;8.008;2023-03-23T16:45:18;14.20;99.90
3334;DHT22;1679;50.392;8.008;2023-03-23T16:47:44;14.20;99.90
3334;DHT22;1679;50.392;8.008;2023-03-23T16:50:13;14.20;99.90
3334;DHT22;1679;50.392;8.008;2023-03-23T16:52:40;14.10;99.90
3334;DHT22;1679;50.392;8.008;2023-03-23T16:55:08;14.10;99.90
3334;DHT22;1679;50.392;8.008;2023-03-23T16:57:34;14.10;99.90
3334;DHT22;1679;50.392;8.008;2023-03-23T17:00:07;14.10;99.90
3334;DHT22;1679;50.392;8.008;2023-03-23T17:02:34;14.00;99.90
3334;DHT22;1679;50.392;8.008;2023-03-23T17:05:00;14.00;99.90
3334;DHT22;1679;50.392;8.008;2023-03-23T17:07:28;13.90;99.90
3334;DHT22;1679;50.392;8.008;2023-03-23T17:09:53;13.90;99.90
3334;DHT22;1679;50.392;8.008;2023-03-23T17:12:19;13.80;99.90
3334;DHT22;1679;50.392;8.008;2023-03-23T17:14:45;13.80;99.90
3334;DHT22;1679;50.392;8.008;2023-03-23T17:17:12;13.70;99.90
3334;DHT22;1679;50.392;8.008;2023-03-23T17:19:39;13.60;99.90
3334;DHT22;1679;50.392;8.008;2023-03-23T17:22:05;13.50;99.90
3334;DHT22;1679;50.392;8.008;2023-03-23T17:24:30;13.50;99.90
3334;DHT22;1679;50.392;8.008;2023-03-23T17:26:56;13.40;99.90